Tiempo atmosférico en la estación meteorológica de Valdezcaray, estación de esquí, La Rioja (1630 m.)



Fecha
DESCASC
Temp. máxima en grados centígrados (hora)
DESCASC
Temp. mínima en grados centígrados (hora)
DESCASC
Temp. media en grados centígrados
DESCASC
Racha de viento máxima en m/sg (hora)
DESCASC
Velocidad máxima media en intervalos de 10 minutos(hora)
DESCASC
Precipitaciones diarias en mm
DESCASC
Precipitaciones de 00:00 a 06:00 en mm
DESCASC
Precipitaciones de 06:00 a 12:00 en mm
DESCASC
Precipitaciones de 12:00 a 18:00 en mm
DESCASC
Precipitaciones de 18:00 a 24:00 en mm
DESCASC
29-10-2020 15.4 (15:30) 4 (02:50) 9.7 7.78 (18:10) 4.17 (18:20) 0 0 0 0 0
28-10-2020 9.3 (14:40) 5 (23:40) 7.2 15 (05:00) 7.5 (02:40) 0 0 0 0 0
27-10-2020 8.3 (13:00) 1.1 (00:00) 4.7 13.61 (16:10) 8.61 (16:10) 1.4 0 0 0 1.4
26-10-2020 4.2 (15:00) -0.8 (-00:0) 1.7 14.44 (21:20) 6.39 (20:00) 0 0 0 0 0
25-10-2020 7.7 (14:30) 1.1 (00:00) 4.4 34.17 (12:40) 16.39 (12:40) 16 0.2 3 12.2 0.6
24-10-2020 9.2 (12:30) 4 (00:00) 6.6 27.22 (23:59) 13.33 (23:59) 0 0 0 0 0
23-10-2020 6.7 (00:00) 3.5 (00:00) 5.1 13.89 (04:00) 7.22 (16:30) 5 3 2 0 0
22-10-2020 9.1 (15:10) 6.7 (00:00) 7.9 15.28 (06:30) 7.78 (22:40) 6.8 2.2 0.2 1.8 2.6
21-10-2020 10.3 (02:40) 6.8 (00:00) 8.6 36.39 (02:30) 18.33 (02:40) 36.4 34.4 2 0 0
20-10-2020 13.2 (00:10) 7.8 (00:00) 10.5 33.06 (23:00) 11.94 (10:30) 25.6 1 5.2 10.6 8.8
19-10-2020 16.1 (16:20) 9.4 (00:00) 12.8 26.11 (17:00) 11.67 (16:30) 0.2 0 0 0.2 0
18-10-2020 14 (17:10) 4.2 (00:00) 9.1 9.72 (23:50) 7.5 (23:50) 0 0 0 0 0
17-10-2020 9.3 (14:30) 0.7 (00:00) 5 5.83 (13:40) 3.61 (20:30) 0 0 0 0 0
16-10-2020 2.1 (22:50) -1.6 (-00:0) 0.2 5.83 (05:30) 2.5 (05:30) 1 0.2 0.8 0 0
15-10-2020 0.7 (12:10) -1.5 (-00:0) -0.4 8.61 (15:50) 5.28 (15:50) 6.2 0.8 2.6 2.6 0.2
14-10-2020 2.2 (00:20) 0 (00:00) 1.1 12.78 (14:10) 6.39 (14:00) 1.4 0 0.6 0.6 0.2
13-10-2020 7.9 (01:40) 2.1 (00:00) 5 15 (02:40) 6.39 (03:00) 3.2 1.6 0.2 0 1.4
12-10-2020 8.2 (23:40) 0.6 (00:00) 4.4 12.78 (21:20) 5.28 (06:40) 4.8 4.6 0.2 0 0
11-10-2020 3.4 (00:00) 0 (00:00) 1.7 9.72 (16:50) 5.56 (16:40) 7 2.2 0.2 2.6 2
10-10-2020 7.7 (00:00) 3.2 (00:00) 5.4 9.17 (13:10) 3.89 (13:10) 4 0 0.4 2.6 1
09-10-2020 14.7 (11:30) 7.7 (00:00) 11.2 7.22 (09:40) 3.61 (09:20) 0 0 0 0 0
08-10-2020 16.9 (14:30) 9.6 (00:00) 13.3 10.28 (20:50) 3.89 (21:30) 0 0 0 0 0
07-10-2020 13.9 (16:40) 8.5 (00:00) 11.2 12.22 (00:30) 3.89 (10:50) 0 0 0 0 0
06-10-2020 13.7 (15:50) 8.5 (00:00) 11.1 14.72 (20:10) 6.67 (04:10) 0 0 0 0 0
05-10-2020 9 (18:10) 2.1 (00:00) 5.5 15 (23:50) 6.11 (20:00) 0 0 0 0 0
04-10-2020 6 (14:20) 2.5 (00:00) 4.3 22.78 (08:00) 11.94 (08:20) 3 0 0.4 1.4 1.2
03-10-2020 5.6 (17:50) 0.3 (00:00) 2.9 21.39 (19:00) 9.72 (17:10) 0 0 0 0 0
02-10-2020 8.3 (00:10) -0.3 (00:00) 4 35.28 (05:40) 18.89 (06:30) 23.2 6 13.4 3.6 0.2
01-10-2020 13.2 (00:00) 7.5 (00:00) 10.3 33.61 (23:10) 15 (23:10) 0.2 0 0 0 0.2
30-09-2020 17 (15:10) 8.4 (00:00) 12.7 13.89 (22:30) 6.39 (22:40) 0 0 0 0 0

Gráficas

Temp. máximas Temp. mínimas Temp. medias Precipitaciones Rachas de viento máximas Velocidades máximas media en intervalos de 10 minutos

Datos horarios

Fecha y hora oficial Temperatura (ºC) Velocidad del viento (km/h) Dirección del viento Racha (km/h) Dirección de racha Precipitación (mm) Presión (hPa) Tendencia (hPa) Humedad (%)
2020-10-29 23:00:00 11.1 9 Sur 21 Sur 0 -- -- 17
2020-10-29 22:00:00 10.6 10 Sur 16 Sur 0 -- -- 19
2020-10-29 21:00:00 10.8 7 Sudoeste 19 Sur 0 -- -- 22
2020-10-29 20:00:00 12.3 7 Sudoeste 20 Sudoeste 0 -- -- 15
2020-10-29 19:00:00 13.1 9 Sudoeste 28 Sudoeste 0 -- -- 18
2020-10-29 18:00:00 12.5 7 Sudoeste 17 Sudoeste 0 -- -- 26
2020-10-29 17:00:00 12.9 5 Este 22 Norte 0 -- -- 33
2020-10-29 16:00:00 15.1 5 Noroeste 13 Noroeste 0 -- -- 30
2020-10-29 15:00:00 14.7 5 Norte 18 Noroeste 0 -- -- 53
2020-10-29 14:00:00 13.5 7 Noroeste 17 Noroeste 0 -- -- 56
2020-10-29 13:00:00 11.8 6 Noroeste 17 Noroeste 0 -- -- 60
2020-10-29 12:00:00 14.4 4 Noroeste 16 Sudoeste 0 -- -- 32
2020-10-29 11:00:00 13.4 11 Sur 18 Sudoeste 0 -- -- 30
2020-10-29 10:00:00 5.7 5 Sudeste 8 Sudeste 0 -- -- 60
2020-10-29 09:00:00 4.8 5 Sudeste 16 Sudoeste 0 -- -- 62
2020-10-29 08:00:00 11.4 12 Sudoeste 23 Sudoeste 0 -- -- 31
2020-10-29 07:00:00 4.7 9 Sudeste 13 Sur 0 -- -- 58
2020-10-29 06:00:00 5.4 6 Sudeste 13 Este 0 -- -- 61
2020-10-29 05:00:00 5.3 5 Nordeste 10 Nordeste 0 -- -- 67
2020-10-29 04:00:00 4.2 2 Este 13 Este 0 -- -- 83
2020-10-29 03:00:00 4 6 Este 13 Este 0 -- -- 89
2020-10-29 02:00:00 4.7 4 Sudeste 18 Oeste 0 -- -- 79
2020-10-29 01:00:00 5.3 7 Sur 17 Noroeste 0 -- -- 78
2020-10-29 00:00:00 5.8 5 Este 22 Oeste 0 -- -- 71
2020-10-28 23:00:00 7.1 8 Este 28 Sur 0 -- -- 77
2020-10-28 22:00:00 8.1 15 Sudoeste 25 Sudoeste 0 -- -- 68
2020-10-28 21:00:00 8.1 17 Sudoeste 35 Sudoeste 0 -- -- 66
2020-10-28 20:00:00 6.8 6 Norte 18 Sudoeste 0 -- -- 84
2020-10-28 19:00:00 7.2 6 Sudoeste 21 Oeste 0 -- -- 83
2020-10-28 18:00:00 8.3 9 Oeste 30 Sudoeste 0 -- -- 74
2020-10-28 17:00:00 8.5 9 Oeste 35 Sur 0 -- -- 77
2020-10-28 16:00:00 8.9 14 Norte 31 Noroeste 0 -- -- 80
2020-10-28 15:00:00 8.8 9 Norte 30 Sur 0 -- -- 76
2020-10-28 14:00:00 8.8 16 Sur 44 Sudoeste 0 -- -- 77
2020-10-28 13:00:00 8.7 9 Sudeste 35 Sur 0 -- -- 76
2020-10-28 12:00:00 8.4 14 Sudoeste 38 Sur 0 -- -- 79
2020-10-28 11:00:00 7.9 10 Norte 36 Sudoeste 0 -- -- 80
2020-10-28 10:00:00 7.3 14 Sudoeste 48 Norte 0 -- -- 85
2020-10-28 09:00:00 7.8 17 Noroeste 44 Norte 0 -- -- 85
2020-10-28 08:00:00 7.5 15 Noroeste 35 Oeste 0 -- -- 92
2020-10-28 07:00:00 7.7 12 Noroeste 43 Sur 0 -- -- 89
2020-10-28 06:00:00 6.8 9 Noroeste 45 Noroeste 0 -- -- 95
2020-10-28 05:00:00 6.4 22 Norte 54 Noroeste 0 -- -- 96
2020-10-28 04:00:00 6.6 21 Norte 50 Norte 0 -- -- 96
2020-10-28 03:00:00 6.9 24 Norte 50 Norte 0 -- -- 91
2020-10-28 02:00:00 6.8 14 Norte 48 Sur 0 -- -- 92
2020-10-28 01:00:00 7.7 10 Oeste 43 Norte 0 -- -- 87
2020-10-28 00:00:00 7.1 11 Sudoeste 33 Sur 0 -- -- 88
2020-10-27 23:00:00 6.6 18 Sudoeste 38 Sudoeste 0 -- -- 89
2020-10-27 22:00:00 6.8 23 Sudoeste 45 Sudoeste 0 -- -- 89
2020-10-27 21:00:00 6.3 24 Sudoeste 42 Sudoeste 0 -- -- 89
2020-10-27 20:00:00 6.2 24 Sudoeste 40 Sudoeste 0.4 -- -- 91
2020-10-27 19:00:00 6.7 19 Sudoeste 42 Sudoeste 1 -- -- 86
2020-10-27 18:00:00 7.4 20 Sudoeste 41 Sudoeste 0 -- -- 84
2020-10-27 17:00:00 6.5 20 Sudoeste 49 Sudoeste 0 -- -- 87
2020-10-27 16:00:00 6 24 Sudoeste 43 Sur 0 -- -- 87
2020-10-27 15:00:00 5.8 23 Sudoeste 43 Sudoeste 0 -- -- 81
2020-10-27 14:00:00 5.8 23 Sudoeste 47 Oeste 0 -- -- 81
2020-10-27 13:00:00 8.3 19 Oeste 44 Sur 0 -- -- 62
2020-10-27 12:00:00 7.5 12 Oeste 32 Oeste 0 -- -- 74
2020-10-27 11:00:00 7.2 14 Noroeste 44 Oeste 0 -- -- 71
2020-10-27 10:00:00 5.7 25 Sudoeste 46 Sur 0 -- -- 76
2020-10-27 09:00:00 3.8 20 Sudoeste 42 Sudoeste 0 -- -- 78
2020-10-27 08:00:00 1.8 15 Sudoeste 45 Sudoeste 0 -- -- 85
2020-10-27 07:00:00 1.9 17 Sudoeste 38 Sudoeste 0 -- -- 79
2020-10-27 06:00:00 1.7 10 Oeste 30 Sur 0 -- -- 86
2020-10-27 05:00:00 1.2 10 Oeste 41 Sur 0 -- -- 90
2020-10-27 04:00:00 1.2 15 Sudoeste 45 Oeste 0 -- -- 89
2020-10-27 03:00:00 1.3 12 Sudoeste 25 Sudoeste 0 -- -- 87
2020-10-27 02:00:00 1.3 11 Oeste 35 Noroeste 0 -- -- 84
2020-10-27 01:00:00 1.4 12 Noroeste 34 Oeste 0 -- -- 85
2020-10-27 00:00:00 1.2 14 Noroeste 39 Norte 0 -- -- 89
2020-10-26 23:00:00 1.4 10 Oeste 40 Noroeste 0 -- -- 87
2020-10-26 22:00:00 1.9 17 Norte 52 Noroeste 0 -- -- 81
2020-10-26 21:00:00 2.2 19 Norte 49 Noroeste 0 -- -- 81
2020-10-26 20:00:00 2.5 23 Norte 45 Noroeste 0 -- -- 79
2020-10-26 19:00:00 2.4 17 Noroeste 44 Norte 0 -- -- 82
2020-10-26 18:00:00 2.7 13 Noroeste 33 Noroeste 0 -- -- 81
2020-10-26 17:00:00 2.8 12 Noroeste 33 Norte 0 -- -- 78
2020-10-26 16:00:00 2.8 13 Noroeste 31 Oeste 0 -- -- 76
2020-10-26 15:00:00 4.2 13 Noroeste 31 Oeste 0 -- -- 66
2020-10-26 14:00:00 3.7 21 Norte 35 Noroeste 0 -- -- 65
2020-10-26 13:00:00 3.6 13 Noroeste 32 Noroeste 0 -- -- 63
2020-10-26 12:00:00 2.6 12 Noroeste 24 Noroeste 0 -- -- 72
2020-10-26 11:00:00 1.7 7 Noroeste 19 Oeste 0 -- -- 79
2020-10-26 10:00:00 0.6 9 Noroeste 22 Oeste 0 -- -- 82
2020-10-26 09:00:00 -0.1 9 Noroeste 23 Oeste 0 -- -- 85
2020-10-26 08:00:00 -0.5 12 Oeste 27 Oeste 0 -- -- 86
2020-10-26 07:00:00 -0.3 13 Noroeste 26 Oeste 0 -- -- 85
2020-10-26 06:00:00 -0.4 9 Oeste 26 Oeste 0 -- -- 87
2020-10-26 05:00:00 -0.6 11 Oeste 31 Oeste 0 -- -- 91
2020-10-26 04:00:00 -0.4 12 Noroeste 23 Oeste 0 -- -- 90
2020-10-26 03:00:00 -0.3 12 Noroeste 32 Noroeste 0 -- -- 92
2020-10-26 02:00:00 0.1 12 Norte 28 Norte 0 -- -- 90
2020-10-26 01:00:00 0.8 10 Oeste 36 Norte 0 -- -- 90
2020-10-26 00:00:00 1.3 24 Norte 47 Norte 0 -- -- 88
2020-10-25 23:00:00 1.2 18 Norte 50 Norte 0 -- -- 85
2020-10-25 22:00:00 1.8 18 Norte 52 Norte 0 -- -- 83
2020-10-25 21:00:00 2.3 15 Noroeste 49 Noroeste 0 -- -- 91
2020-10-25 20:00:00 4.1 23 Norte 80 Norte 0.2 -- -- 86
2020-10-25 19:00:00 4.6 44 Norte 85 Norte 0.4 -- -- 83
2020-10-25 18:00:00 5.6 33 Norte 66 Noroeste 1.8 -- -- 94
2020-10-25 17:00:00 6.5 21 Norte 82 Noroeste 3.2 -- -- 93
2020-10-25 16:00:00 6.8 24 Norte 62 Sudeste 3 -- -- 97
2020-10-25 15:00:00 7.6 31 Sudeste 87 Sudeste 1.8 -- -- 88
2020-10-25 14:00:00 7.5 37 Sudeste 122 Sudeste 1 -- -- 87
2020-10-25 13:00:00 7.2 59 Sudeste 123 Sur 1.4 -- -- 87
2020-10-25 12:00:00 6.9 41 Sudeste 101 Sudeste 2.4 -- -- 87
2020-10-25 11:00:00 7.3 36 Sudeste 92 Sur 0 -- -- 86
2020-10-25 10:00:00 6.2 29 Sudeste 105 Sur 0.4 -- -- 91
2020-10-25 09:00:00 6.4 38 Sudeste 113 Sur 0.2 -- -- 86
2020-10-25 08:00:00 6.1 45 Sudeste 109 Sudeste 0 -- -- 87
2020-10-25 07:00:00 5.6 39 Sudeste 117 Sudeste 0 -- -- 88
2020-10-25 06:00:00 5.5 35 Sudeste 106 Sur 0.2 -- -- 90
2020-10-25 05:00:00 5.1 17 Nordeste 66 Sudeste 0 -- -- 92
2020-10-25 04:00:00 5.1 13 Norte 48 Norte 0 -- -- 96
2020-10-25 03:00:00 5 21 Norte 50 Noroeste 0 -- -- 98
2020-10-25 02:00:00 5.6 16 Este 72 Sudeste 0 -- -- 91
2020-10-25 01:00:00 6.4 36 Sur 108 Sur 0 -- -- 83
2020-10-25 00:00:00 6.4 48 Sudeste 98 Sur 0 -- -- 81
2020-10-24 23:00:00 6.4 26 Este 83 Sudeste 0 -- -- 83
2020-10-24 22:00:00 5.9 23 Nordeste 72 Sudeste 0 -- -- 86
2020-10-24 21:00:00 5.2 15 Norte 71 Sur 0 -- -- 93
2020-10-24 20:00:00 5.5 24 Este 64 Sur 0 -- -- 87
2020-10-24 19:00:00 6.1 17 Sudeste 54 Sur 0 -- -- 80
2020-10-24 18:00:00 6.5 13 Este 53 Norte 0 -- -- 76
2020-10-24 17:00:00 6.8 14 Noroeste 49 Sur 0 -- -- 79
2020-10-24 16:00:00 7.2 18 Sudeste 50 Sudeste 0 -- -- 71
2020-10-24 15:00:00 8.3 10 Norte 30 Nordeste 0 -- -- 61
2020-10-24 14:00:00 7.3 12 Este 39 Norte 0 -- -- 70
2020-10-24 13:00:00 8.4 14 Sur 43 Norte 0 -- -- 44
2020-10-24 12:00:00 7.9 13 Noroeste 39 Oeste 0 -- -- 44
2020-10-24 11:00:00 6.3 14 Sudoeste 47 Oeste 0 -- -- 61
2020-10-24 10:00:00 5.5 10 Noroeste 34 Oeste 0 -- -- 66
2020-10-24 09:00:00 5.3 10 Oeste 40 Sur 0 -- -- 70
2020-10-24 08:00:00 5.3 13 Sudoeste 37 Sur 0 -- -- 71
2020-10-24 07:00:00 4.9 17 Sudoeste 41 Sudoeste 0 -- -- 71
2020-10-24 06:00:00 4.2 19 Sudoeste 36 Sudoeste 0 -- -- 82
2020-10-24 05:00:00 4.4 15 Sudoeste 39 Sur 0 -- -- 81
2020-10-24 04:00:00 4.8 21 Sur 42 Sur 0 -- -- 77
2020-10-24 03:00:00 4.7 18 Sudoeste 37 Sur 0 -- -- 77
2020-10-24 02:00:00 4.7 21 Sur 37 Sudoeste 0 -- -- 77
2020-10-24 01:00:00 5.1 23 Sur 41 Sur 0 -- -- 76
2020-10-24 00:00:00 4.6 10 Sudoeste 31 Sudeste 0 -- -- 83
2020-10-23 23:00:00 4.9 9 Este 37 Noroeste 0 -- -- 84
2020-10-23 22:00:00 4.9 8 Noroeste 32 Noroeste 0 -- -- 79
2020-10-23 21:00:00 4.8 7 Oeste 22 Oeste 0 -- -- 79
2020-10-23 20:00:00 4.9 5 Oeste 35 Noroeste 0 -- -- 81
2020-10-23 19:00:00 4.9 15 Norte 38 Noroeste 0 -- -- 85
2020-10-23 18:00:00 5.2 12 Norte 38 Norte 0 -- -- 83
2020-10-23 17:00:00 5 18 Norte 47 Noroeste 0 -- -- 85
2020-10-23 16:00:00 4.7 17 Norte 36 Norte 0 -- -- 83
2020-10-23 15:00:00 4.7 19 Norte 42 Sudeste 0 -- -- 84
2020-10-23 14:00:00 4.9 19 Norte 38 Noroeste 0 -- -- 80
2020-10-23 13:00:00 4.9 12 Noroeste 37 Noroeste 0 -- -- 81
2020-10-23 12:00:00 4 14 Norte 41 Este 0.2 -- -- 89
2020-10-23 11:00:00 4.1 8 Sudeste 32 Norte 0 -- -- 87
2020-10-23 10:00:00 3.7 18 Norte 38 Norte 0.4 -- -- 91
2020-10-23 09:00:00 3.7 12 Norte 36 Norte 0.8 -- -- 93
2020-10-23 08:00:00 3.7 20 Noroeste 39 Norte 0.4 -- -- 96
2020-10-23 07:00:00 4.2 9 Nordeste 41 Norte 0.2 -- -- 93
2020-10-23 06:00:00 4.6 9 Norte 39 Sudeste 0 -- -- 94
2020-10-23 05:00:00 5.1 12 Este 40 Sur 0.2 -- -- 89
2020-10-23 04:00:00 4.8 14 Este 50 Sudeste 2 -- -- 85
2020-10-23 03:00:00 5.3 7 Noroeste 34 Sur 0 -- -- 89
2020-10-23 02:00:00 6 20 Sudeste 36 Sur 0.4 -- -- 85
2020-10-23 01:00:00 6.7 20 Sudeste 30 Sudeste 0.4 -- -- 81
2020-10-23 00:00:00 6.7 7 Sudeste 36 Sur 0.4 -- -- 85
2020-10-22 23:00:00 7.5 23 Sudeste 45 Sudeste 0.4 -- -- 80
2020-10-22 22:00:00 7.9 14 Sudeste 42 Sur 0 -- -- 87
2020-10-22 21:00:00 7.5 10 Sudeste 37 Sudeste 1.8 -- -- 89
2020-10-22 20:00:00 8.7 17 Sudeste 44 Sudeste 0 -- -- 81
2020-10-22 19:00:00 8.6 12 Sur 37 Sudoeste 0 -- -- 80
2020-10-22 18:00:00 8.7 13 Sudeste 41 Sur 0 -- -- 85
2020-10-22 17:00:00 8.4 16 Sudeste 37 Sur 0.8 -- -- 86
2020-10-22 16:00:00 8.2 12 Sur 41 Sudeste 0.8 -- -- 87
2020-10-22 15:00:00 8.9 12 Sur 47 Sudoeste 0.2 -- -- 83
2020-10-22 14:00:00 8.6 11 Oeste 38 Sudoeste 0 -- -- 87
2020-10-22 13:00:00 8.3 13 Sudeste 36 Sur 0 -- -- 86
2020-10-22 12:00:00 8 10 Sur 40 Sudeste 0 -- -- 87
2020-10-22 11:00:00 8 12 Sudeste 28 Sur 0 -- -- 87
2020-10-22 10:00:00 7.6 9 Este 44 Sur 0 -- -- 88
2020-10-22 09:00:00 7.9 18 Sur 41 Sur 0 -- -- 85
2020-10-22 08:00:00 7.4 18 Sudeste 45 Sudoeste 0 -- -- 87
2020-10-22 07:00:00 7.9 16 Sudeste 55 Sur 0.2 -- -- 83
2020-10-22 06:00:00 7.4 18 Sudeste 54 Sur 0.6 -- -- 83
2020-10-22 05:00:00 7.5 21 Sudeste 54 Sur 1.4 -- -- 81
2020-10-22 04:00:00 8 19 Sur 42 Nordeste 0.2 -- -- 86
2020-10-22 03:00:00 8.2 26 Sudeste 54 Sudeste 0 -- -- 84
2020-10-22 02:00:00 8.2 25 Sur 49 Sudoeste 0 -- -- 84
2020-10-22 01:00:00 8 20 Sudeste 47 Sur 0 -- -- 83
2020-10-22 00:00:00 8.1 20 Sudeste 44 Este 0 -- -- 80
2020-10-21 23:00:00 8.3 20 Sudeste 57 Este 0 -- -- 74
2020-10-21 22:00:00 8.4 23 Sudeste 69 Sudeste 0 -- -- 76
2020-10-21 21:00:00 8.5 25 Sudeste 65 Sudeste 0 -- -- 76
2020-10-21 20:00:00 8.6 28 Sudeste 68 Sudeste 0 -- -- 76
2020-10-21 19:00:00 8.9 27 Sudeste 64 Sudeste 0 -- -- 72
2020-10-21 18:00:00 9.5 28 Sudeste 55 Sudeste 0 -- -- 74
2020-10-21 17:00:00 9.6 20 Sudeste 46 Sudeste 0 -- -- 75
2020-10-21 16:00:00 10.1 17 Sur 55 Sudeste 0 -- -- 71
2020-10-21 15:00:00 9.8 14 Sudeste 53 Sudeste 0 -- -- 78
2020-10-21 14:00:00 9.8 17 Sudeste 63 Sudeste 0 -- -- 69
2020-10-21 13:00:00 9.2 29 Sudeste 63 Sur 0 -- -- 73
2020-10-21 12:00:00 8.1 25 Sudeste 67 Este 0.2 -- -- 82
2020-10-21 11:00:00 7.9 22 Sudeste 56 Sudeste 0.2 -- -- 84
2020-10-21 10:00:00 7.2 22 Sudeste 53 Sudeste 0.8 -- -- 89
2020-10-21 09:00:00 7.2 21 Sudeste 67 Este 0.2 -- -- 88
2020-10-21 08:00:00 7.6 32 Sudeste 73 Sur 0.4 -- -- 86
2020-10-21 07:00:00 7.6 31 Sudeste 89 Sudeste 0.2 -- -- 85
2020-10-21 06:00:00 8.6 51 Sudeste 95 Sudeste 0 -- -- 79
2020-10-21 05:00:00 9.1 34 Sudeste 86 Sudeste 0.2 -- -- 82
2020-10-21 04:00:00 9.7 44 Sudeste 116 Sur 6.6 -- -- 80
2020-10-21 03:00:00 9.8 54 Sudeste 131 Sur 7.6 -- -- 84
2020-10-21 02:00:00 9.8 32 Sur 105 Sur 12.2 -- -- 90
2020-10-21 01:00:00 9.7 29 Sur 122 Sur 7.8 -- -- 92
2020-10-21 00:00:00 9.5 26 Oeste 107 Sur 1.4 -- -- 91
2020-10-20 23:00:00 9.9 30 Oeste 119 Sur 2 -- -- 85
2020-10-20 22:00:00 11.5 25 Noroeste 89 Sudoeste 1 -- -- 69
2020-10-20 21:00:00 11.1 19 Noroeste 87 Sudoeste 0.8 -- -- 72
2020-10-20 20:00:00 10 31 Sur 112 Sur 2.8 -- -- 81
2020-10-20 19:00:00 10.1 24 Sudeste 101 Sudoeste 0.8 -- -- 81
2020-10-20 18:00:00 10.7 31 Sudeste 107 Sur 0 -- -- 72
2020-10-20 17:00:00 9.3 40 Sudeste 92 Sur 0.8 -- -- 80
2020-10-20 16:00:00 8.6 33 Sudeste 90 Sudeste 2 -- -- 91
2020-10-20 15:00:00 10 39 Sudeste 73 Este 3.4 -- -- 86
2020-10-20 14:00:00 8.4 17 Nordeste 65 Sur 2.8 -- -- 95
2020-10-20 13:00:00 8.2 27 Sudeste 58 Sudeste 1.6 -- -- 95
2020-10-20 12:00:00 8.5 33 Sudeste 68 Sudeste 0.4 -- -- 93
2020-10-20 11:00:00 9.2 36 Sudeste 84 Sudeste 0.6 -- -- 88
2020-10-20 10:00:00 9.4 36 Sudeste 70 Sudeste 0 -- -- 89
2020-10-20 09:00:00 8.4 39 Sudeste 81 Sudeste 1.2 -- -- 88
2020-10-20 08:00:00 8.2 39 Sudeste 66 Sudeste 3 -- -- 86
2020-10-20 07:00:00 9.7 27 Sudeste 54 Sur 0 -- -- 68
2020-10-20 06:00:00 9.3 22 Sudeste 65 Sur 0.8 -- -- 72
2020-10-20 05:00:00 9.7 23 Sudeste 79 Sur 0.2 -- -- 68
2020-10-20 04:00:00 11.1 20 Sudeste 62 Sur 0 -- -- 57
2020-10-20 03:00:00 11.5 21 Sudeste 59 Sur 0 -- -- 53
2020-10-20 02:00:00 11.3 17 Sudeste 69 Sudeste 0 -- -- 54
2020-10-20 01:00:00 12.6 28 Sudeste 77 Sudeste 0 -- -- 48
2020-10-20 00:00:00 13 23 Sudeste 59 Sudoeste 0 -- -- 45
2020-10-19 23:00:00 13.2 15 Nordeste 64 Sur 0 -- -- 45
2020-10-19 22:00:00 13 17 Sur 73 Sur 0 -- -- 46
2020-10-19 21:00:00 13 21 Sudeste 56 Este 0 -- -- 45
2020-10-19 20:00:00 13.5 20 Sudeste 55 Sur 0 -- -- 45
2020-10-19 19:00:00 14.7 25 Sudeste 76 Sur 0 -- -- 40
2020-10-19 18:00:00 15 39 Sudeste 77 Sur 0 -- -- 39
2020-10-19 17:00:00 16 32 Sudeste 94 Sudeste 0.2 -- -- 35
2020-10-19 16:00:00 15.7 26 Sudeste 69 Sudeste 0 -- -- 40
2020-10-19 15:00:00 14.6 36 Sudeste 73 Sudeste 0 -- -- 40
2020-10-19 14:00:00 14.3 26 Sudeste 61 Sudeste 0 -- -- 39
2020-10-19 13:00:00 13.8 21 Sudeste 64 Sudeste 0 -- -- 37
2020-10-19 12:00:00 13.1 22 Este 46 Este 0 -- -- 37
2020-10-19 11:00:00 11.6 23 Este 48 Sur 0 -- -- 35
2020-10-19 10:00:00 12.5 30 Sur 53 Sur 0 -- -- 27
2020-10-19 09:00:00 12.5 34 Sur 46 Sur 0 -- -- 22
2020-10-19 08:00:00 11.9 27 Sur 37 Sur 0 -- -- 27
2020-10-19 07:00:00 10.8 25 Sur 35 Sudeste 0 -- -- 35
2020-10-19 06:00:00 11.2 24 Sudeste 34 Sur 0 -- -- 35
2020-10-19 05:00:00 10.1 24 Sur 44 Sudeste 0 -- -- 41
2020-10-19 04:00:00 10.3 32 Sur 46 Sudeste 0 -- -- 41
2020-10-19 03:00:00 10.4 35 Sudeste 48 Sudeste 0 -- -- 40
2020-10-19 02:00:00 10.4 35 Sudeste 42 Sur 0 -- -- 43
2020-10-19 01:00:00 9.9 30 Sudeste 38 Sur 0 -- -- 43
2020-10-19 00:00:00 9.9 27 Sudeste 35 Sur 0 -- -- 52
2020-10-18 23:00:00 9 22 Sudeste 30 Sur 0 -- -- 56
2020-10-18 22:00:00 8.6 16 Sur 19 Sur 0 -- -- 55
2020-10-18 21:00:00 7.7 10 Sur 16 Sur 0 -- -- 68
2020-10-18 20:00:00 7.5 10 Sur 15 Sur 0 -- -- 69
2020-10-18 19:00:00 8.4 7 Sur 15 Sur 0 -- -- 73
2020-10-18 18:00:00 10.1 8 Sur 14 Sur 0 -- -- 61
2020-10-18 17:00:00 13.7 4 Oeste 10 Sur 0 -- -- 60
2020-10-18 16:00:00 11.1 4 Noroeste 13 Oeste 0 -- -- 67
2020-10-18 15:00:00 11.3 2 Oeste 10 Noroeste 0 -- -- 60
2020-10-18 14:00:00 11.7 5 Noroeste 11 Noroeste 0 -- -- 60
2020-10-18 13:00:00 11.9 3 Oeste 19 Sudeste 0 -- -- 56
2020-10-18 12:00:00 9.4 10 Sur 13 Sur 0 -- -- 64
2020-10-18 11:00:00 7.5 8 Sudeste 12 Sur 0 -- -- 62
2020-10-18 10:00:00 5.8 6 Sudeste 14 Sudeste 0 -- -- 72
2020-10-18 09:00:00 5 8 Sudeste 13 Sur 0 -- -- 75
2020-10-18 08:00:00 4.7 5 Sudeste 14 Sudeste 0 -- -- 76
2020-10-18 07:00:00 5.1 9 Sudeste 15 Sur 0 -- -- 74
2020-10-18 06:00:00 4.5 9 Sudeste 15 Sur 0 -- -- 78
2020-10-18 05:00:00 4.5 7 Sudeste 14 Sur 0 -- -- 83
2020-10-18 04:00:00 5.6 11 Sudeste 19 Sudeste 0 -- -- 80
2020-10-18 03:00:00 6.1 10 Sudeste 16 Sudeste 0 -- -- 80
2020-10-18 02:00:00 4.9 11 Sudeste 15 Sudeste 0 -- -- 86
2020-10-18 01:00:00 5.9 10 Sudeste 15 Sudeste 0 -- -- 83
2020-10-18 00:00:00 4.8 9 Sur 15 Sur 0 -- -- 87
2020-10-17 23:00:00 4.9 11 Sudeste 14 Sudeste 0 -- -- 85
2020-10-17 22:00:00 5 10 Sudeste 16 Sudeste 0 -- -- 80
2020-10-17 21:00:00 5 11 Sudeste 18 Sudeste 0 -- -- 68
2020-10-17 20:00:00 4.9 9 Sudeste 13 Sudeste 0 -- -- 62
2020-10-17 19:00:00 5.6 8 Sudeste 11 Sur 0 -- -- 80
2020-10-17 18:00:00 7.9 2 Sur 10 Noroeste 0 -- -- 67
2020-10-17 17:00:00 8.4 5 Oeste 15 Noroeste 0 -- -- 67
2020-10-17 16:00:00 9.1 7 Noroeste 16 Noroeste 0 -- -- 59
2020-10-17 15:00:00 8.8 5 Noroeste 17 Norte 0 -- -- 60
2020-10-17 14:00:00 8 7 Noroeste 21 Norte 0 -- -- 63
2020-10-17 13:00:00 7.4 6 Sudoeste 16 Sur 0 -- -- 60
2020-10-17 12:00:00 6 8 Noroeste 19 Noroeste 0 -- -- 63
2020-10-17 11:00:00 5.8 4 Norte 16 Oeste 0 -- -- 55
2020-10-17 10:00:00 4.3 3 Sudeste 12 Oeste 0 -- -- 56
2020-10-17 09:00:00 3.7 3 Noroeste 16 Sudoeste 0 -- -- 61
2020-10-17 08:00:00 3.1 4 Sudoeste 12 Sudoeste 0 -- -- 68
2020-10-17 07:00:00 2.9 3 Noroeste 18 Oeste 0 -- -- 73
2020-10-17 06:00:00 3.1 6 Oeste 15 Sudoeste 0 -- -- 75
2020-10-17 05:00:00 3 5 Oeste 18 Oeste 0 -- -- 74
2020-10-17 04:00:00 2.8 5 Sudoeste 12 Sudoeste 0 -- -- 73
2020-10-17 03:00:00 1.7 6 Sudeste 14 Sudeste 0 -- -- 85
2020-10-17 02:00:00 1.2 8 Sudeste 14 Sudeste 0 -- -- 88
2020-10-17 01:00:00 1.6 4 Sudoeste 8 Sudoeste 0 -- -- 86
2020-10-17 00:00:00 1.7 3 Sudoeste 8 Sudoeste 0 -- -- 87
2020-10-16 23:00:00 2 5 Sudoeste 10 Oeste 0 -- -- 85
2020-10-16 22:00:00 1.7 6 Sudoeste 10 Oeste 0 -- -- 94
2020-10-16 21:00:00 1.5 4 Sudoeste 10 Sudoeste 0 -- -- 100
2020-10-16 20:00:00 0.8 3 Sudoeste 7 Sudoeste 0 -- -- 100
2020-10-16 19:00:00 1 0 Calma 6 Noroeste 0 -- -- 100
2020-10-16 18:00:00 1.1 4 Noroeste 9 Noroeste 0 -- -- 100
2020-10-16 17:00:00 1.4 6 Noroeste 9 Noroeste 0 -- -- 100
2020-10-16 16:00:00 1 5 Noroeste 9 Noroeste 0 -- -- 100
2020-10-16 15:00:00 1 4 Noroeste 10 Noroeste 0 -- -- 100
2020-10-16 14:00:00 0.4 5 Noroeste 9 Noroeste 0 -- -- 100
2020-10-16 13:00:00 0.1 6 Noroeste 11 Noroeste 0 -- -- 100
2020-10-16 12:00:00 -0.2 2 Norte 8 Sur 0 -- -- 100
2020-10-16 11:00:00 -1.4 4 Noroeste 8 Sudeste 0 -- -- 100
2020-10-16 10:00:00 -1.2 5 Noroeste 13 Noroeste 0 -- -- 100
2020-10-16 09:00:00 -0.9 4 Noroeste 13 Noroeste 0 -- -- 100
2020-10-16 08:00:00 -0.9 5 Noroeste 15 Noroeste 0.2 -- -- 100
2020-10-16 07:00:00 -0.7 5 Noroeste 9 Noroeste 0.6 -- -- 100
2020-10-16 06:00:00 -0.8 4 Noroeste 21 Noroeste 0 -- -- 100
2020-10-16 05:00:00 -0.6 6 Noroeste 13 Oeste 0.2 -- -- 100
2020-10-16 04:00:00 -0.6 0 Calma 14 Oeste 0 -- -- 100
2020-10-16 03:00:00 -0.7 4 Norte 15 Noroeste 0 -- -- 100
2020-10-16 02:00:00 -0.8 4 Noroeste 19 Oeste 0 -- -- 100
2020-10-16 01:00:00 -1 5 Oeste 14 Nordeste 0 -- -- 100
2020-10-16 00:00:00 -1.2 4 Nordeste 17 Nordeste 0 -- -- 100
2020-10-15 23:00:00 -1.5 4 Sudeste 20 Noroeste 0 -- -- 100
2020-10-15 22:00:00 -1.1 9 Noroeste 23 Noroeste 0 -- -- 100
2020-10-15 21:00:00 -0.5 12 Noroeste 23 Oeste 0.2 -- -- 100
2020-10-15 20:00:00 -0.5 10 Norte 20 Noroeste 0 -- -- 100
2020-10-15 19:00:00 -0.7 8 Noroeste 19 Norte 0 -- -- 100
2020-10-15 18:00:00 -0.4 11 Noroeste 22 Norte 0.4 -- -- 100
2020-10-15 17:00:00 -0.3 12 Noroeste 25 Oeste 0.4 -- -- 100
2020-10-15 16:00:00 0 11 Noroeste 31 Noroeste 0.4 -- -- 100
2020-10-15 15:00:00 0.4 12 Noroeste 21 Noroeste 0 -- -- 100
2020-10-15 14:00:00 0 10 Noroeste 22 Noroeste 1.2 -- -- 100
2020-10-15 13:00:00 0.1 13 Noroeste 24 Noroeste 0.2 -- -- 100
2020-10-15 12:00:00 0.6 14 Noroeste 30 Noroeste 0 -- -- 100
2020-10-15 11:00:00 0.5 10 Noroeste 23 Noroeste 1.2 -- -- 100
2020-10-15 10:00:00 0.1 11 Noroeste 25 Noroeste 1 -- -- 100
2020-10-15 09:00:00 0.4 12 Noroeste 28 Noroeste 0.2 -- -- 100
2020-10-15 08:00:00 0.5 10 Noroeste 22 Noroeste 0 -- -- 100
2020-10-15 07:00:00 0 8 Noroeste 18 Oeste 0.2 -- -- 100
2020-10-15 06:00:00 0.3 8 Noroeste 19 Oeste 0 -- -- 100
2020-10-15 05:00:00 0.4 10 Noroeste 17 Oeste 0 -- -- 100
2020-10-15 04:00:00 0.3 8 Noroeste 23 Noroeste 0.6 -- -- 100
2020-10-15 03:00:00 0.3 9 Noroeste 18 Noroeste 0 -- -- 100
2020-10-15 02:00:00 0.1 6 Noroeste 23 Noroeste 0 -- -- 100
2020-10-15 01:00:00 0.3 9 Noroeste 21 Noroeste 0.2 -- -- 100
2020-10-15 00:00:00 0.2 8 Noroeste 19 Noroeste 0 -- -- 100
2020-10-14 23:00:00 0.4 8 Noroeste 23 Noroeste 0 -- -- 100
2020-10-14 22:00:00 0.5 14 Noroeste 27 Noroeste 0 -- -- 100
2020-10-14 21:00:00 0.9 15 Noroeste 32 Noroeste 0 -- -- 100
2020-10-14 20:00:00 1 15 Noroeste 35 Noroeste 0 -- -- 100
2020-10-14 19:00:00 0.7 19 Noroeste 36 Noroeste 0.2 -- -- 100
2020-10-14 18:00:00 0.8 20 Noroeste 35 Oeste 0 -- -- 100
2020-10-14 17:00:00 0.9 17 Noroeste 35 Noroeste 0.2 -- -- 100
2020-10-14 16:00:00 0.9 18 Noroeste 40 Noroeste 0.2 -- -- 100
2020-10-14 15:00:00 1 22 Noroeste 46 Noroeste 0 -- -- 100
2020-10-14 14:00:00 1.3 23 Noroeste 41 Noroeste 0.2 -- -- 100
2020-10-14 13:00:00 1.4 18 Noroeste 38 Noroeste 0 -- -- 100
2020-10-14 12:00:00 0.8 20 Noroeste 39 Noroeste 0 -- -- 100
2020-10-14 11:00:00 0.6 17 Noroeste 33 Noroeste 0 -- -- 100
2020-10-14 10:00:00 0.6 21 Noroeste 38 Noroeste 0.4 -- -- 100
2020-10-14 09:00:00 0.3 17 Noroeste 34 Noroeste 0.2 -- -- 100
2020-10-14 08:00:00 0.9 15 Noroeste 38 Noroeste 0 -- -- 100
2020-10-14 07:00:00 1.1 12 Noroeste 27 Noroeste 0 -- -- 100
2020-10-14 06:00:00 1.2 9 Noroeste 25 Norte 0 -- -- 100
2020-10-14 05:00:00 1.3 14 Noroeste 31 Oeste 0 -- -- 100
2020-10-14 04:00:00 1.4 11 Noroeste 25 Noroeste 0 -- -- 100
2020-10-14 03:00:00 1.3 12 Noroeste 23 Noroeste 0 -- -- 100
2020-10-14 02:00:00 1.3 9 Noroeste 19 Noroeste 0 -- -- 100
2020-10-14 01:00:00 2 7 Noroeste 19 Noroeste 0 -- -- 100
2020-10-14 00:00:00 2.1 10 Noroeste 24 Noroeste 0 -- -- 100
2020-10-13 23:00:00 2.9 13 Noroeste 23 Noroeste 0.4 -- -- 100
2020-10-13 22:00:00 3.3 12 Noroeste 23 Oeste 0.8 -- -- 100
2020-10-13 21:00:00 4.4 5 Noroeste 13 Noroeste 0.2 -- -- 100
2020-10-13 20:00:00 4.8 7 Noroeste 17 Noroeste 0 -- -- 100
2020-10-13 19:00:00 5.4 8 Noroeste 14 Noroeste 0 -- -- 100
2020-10-13 18:00:00 5.5 6 Noroeste 15 Noroeste 0 -- -- 100
2020-10-13 17:00:00 5.7 10 Noroeste 21 Oeste 0 -- -- 100
2020-10-13 16:00:00 6 8 Noroeste 20 Noroeste 0 -- -- 100
2020-10-13 15:00:00 6 10 Noroeste 21 Noroeste 0 -- -- 100
2020-10-13 14:00:00 5.5 10 Noroeste 22 Noroeste 0 -- -- 100
2020-10-13 13:00:00 5.4 12 Noroeste 30 Noroeste 0 -- -- 100
2020-10-13 12:00:00 5.1 14 Noroeste 27 Noroeste 0 -- -- 100
2020-10-13 11:00:00 5.3 12 Noroeste 29 Noroeste 0 -- -- 100
2020-10-13 10:00:00 5.5 16 Noroeste 32 Noroeste 0 -- -- 100
2020-10-13 09:00:00 6.1 13 Noroeste 31 Noroeste 0 -- -- 100
2020-10-13 08:00:00 6.6 19 Noroeste 34 Noroeste 0 -- -- 100
2020-10-13 07:00:00 6.8 16 Noroeste 40 Noroeste 0.2 -- -- 100
2020-10-13 06:00:00 7.2 17 Noroeste 36 Noroeste 0.4 -- -- 100
2020-10-13 05:00:00 7.3 15 Noroeste 37 Noroeste 1.2 -- -- 100
2020-10-13 04:00:00 -- -- -- -- -- -- -- -- --
2020-10-13 03:00:00 7.9 23 Noroeste 54 Norte 0 -- -- 99
2020-10-13 02:00:00 7.9 21 Noroeste 42 Oeste 0 -- -- 98
2020-10-13 01:00:00 -- -- -- -- -- -- -- -- --
2020-10-13 00:00:00 7.7 14 Noroeste 33 Oeste 0 -- -- 91
2020-10-12 23:00:00 7.7 14 Noroeste 35 Oeste 0 -- -- 88
2020-10-12 22:00:00 7.7 14 Noroeste 46 Oeste 0 -- -- 89
2020-10-12 21:00:00 6.2 9 Norte 30 Oeste 0 -- -- 88
2020-10-12 20:00:00 5.9 6 Noroeste 21 Oeste 0 -- -- 89
2020-10-12 19:00:00 5.2 10 Noroeste 19 Oeste 0 -- -- 89
2020-10-12 18:00:00 -- -- -- -- -- -- -- -- --
2020-10-12 17:00:00 5.5 11 Noroeste 18 Noroeste 0 -- -- 80
2020-10-12 16:00:00 5.4 12 Noroeste 21 Noroeste 0 -- -- 80
2020-10-12 15:00:00 4.6 8 Noroeste 17 Noroeste 0 -- -- 98
2020-10-12 14:00:00 2.9 9 Noroeste 22 Noroeste 0 -- -- 100
2020-10-12 13:00:00 2.2 8 Noroeste 23 Oeste 0 -- -- 100
2020-10-12 12:00:00 1.6 11 Noroeste 24 Noroeste 0 -- -- 100
2020-10-12 11:00:00 1.2 9 Noroeste 18 Noroeste 0 -- -- 100
2020-10-12 10:00:00 0.9 8 Noroeste 18 Norte 0 -- -- 100
2020-10-12 09:00:00 0.6 7 Noroeste 23 Noroeste 0 -- -- 100
2020-10-12 08:00:00 0.8 13 Noroeste 30 Norte 0 -- -- 100
2020-10-12 07:00:00 0.8 14 Noroeste 32 Noroeste 0.2 -- -- 100
2020-10-12 06:00:00 1.1 15 Norte 31 Norte 0.4 -- -- 100
2020-10-12 05:00:00 1.1 10 Noroeste 27 Noroeste 1 -- -- 100
2020-10-12 04:00:00 -- -- -- -- -- -- -- -- --
2020-10-12 03:00:00 1.2 18 Noroeste 35 Noroeste 1.2 -- -- 100
2020-10-12 02:00:00 1.1 12 Noroeste 30 Norte 0.6 -- -- 100
2020-10-12 01:00:00 1.1 15 Noroeste 32 Oeste 0.6 -- -- 100
2020-10-12 00:00:00 1.3 12 Noroeste 26 Noroeste 0.6 -- -- 100
2020-10-11 23:00:00 1.2 10 Noroeste 33 Noroeste 0 -- -- 100
2020-10-11 22:00:00 1.6 15 Noroeste 34 Noroeste 0.6 -- -- 100
2020-10-11 21:00:00 -- -- -- -- -- -- -- -- --
2020-10-11 20:00:00 -- -- -- -- -- -- -- -- --
2020-10-11 19:00:00 2 17 Noroeste 28 Noroeste 0.4 -- -- 100
2020-10-11 18:00:00 2.1 13 Noroeste 35 Noroeste 0 -- -- 100
2020-10-11 17:00:00 2.1 15 Noroeste 35 Noroeste 0.4 -- -- 100
2020-10-11 16:00:00 2.3 18 Noroeste 32 Noroeste 0.4 -- -- 100
2020-10-11 15:00:00 2.1 12 Noroeste 29 Noroeste 0.2 -- -- 100
2020-10-11 14:00:00 2.1 12 Noroeste 24 Norte 1.2 -- -- 100
2020-10-11 13:00:00 1.8 13 Noroeste 23 Noroeste 0.4 -- -- 100
2020-10-11 12:00:00 1.2 10 Noroeste 25 Noroeste 0.2 -- -- 100
2020-10-11 11:00:00 0.7 12 Noroeste 27 Noroeste 0 -- -- 100
2020-10-11 10:00:00 0.4 8 Noroeste 24 Noroeste 0 -- -- 100
2020-10-11 09:00:00 0 13 Noroeste 27 Noroeste 0 -- -- 100
2020-10-11 08:00:00 0.2 8 Noroeste 30 Norte 0 -- -- 100
2020-10-11 07:00:00 0.3 13 Noroeste 24 Noroeste 0 -- -- 100
2020-10-11 06:00:00 0.8 11 Noroeste 30 Noroeste 0.2 -- -- 100
2020-10-11 05:00:00 0.9 15 Noroeste 30 Noroeste 0.2 -- -- 100
2020-10-11 04:00:00 1.7 13 Noroeste 27 Noroeste 0.4 -- -- 100
2020-10-11 03:00:00 2.4 8 Norte 20 Oeste 0.2 -- -- 100
2020-10-11 02:00:00 1.9 13 Noroeste 26 Noroeste 0 -- -- 100
2020-10-11 01:00:00 2.9 14 Noroeste 30 Noroeste 1.2 -- -- 100
2020-10-11 00:00:00 3.4 5 Noroeste 10 Noroeste 1 -- -- 100
2020-10-10 23:00:00 3.4 5 Noroeste 18 Noroeste 0 -- -- 100
2020-10-10 22:00:00 3.3 4 Noroeste 25 Noroeste 0 -- -- 100
2020-10-10 21:00:00 3.6 9 Norte 19 Noroeste 0 -- -- 100
2020-10-10 20:00:00 3.8 4 Noroeste 18 Noroeste 0 -- -- 100
2020-10-10 19:00:00 4 4 Noroeste 21 Norte 0 -- -- 100
2020-10-10 18:00:00 4.2 9 Noroeste 22 Noroeste 0 -- -- 100
2020-10-10 17:00:00 4.1 7 Noroeste 17 Noroeste 0 -- -- 100
2020-10-10 16:00:00 4.2 9 Noroeste 22 Noroeste 0.4 -- -- 100
2020-10-10 15:00:00 4.6 10 Noroeste 20 Noroeste 0.4 -- -- 100
2020-10-10 14:00:00 5.6 10 Noroeste 33 Noroeste 0.6 -- -- 100
2020-10-10 13:00:00 6.9 9 Noroeste 23 Noroeste 1.2 -- -- 100
2020-10-10 12:00:00 6.7 8 Oeste 19 Noroeste 0 -- -- 100
2020-10-10 11:00:00 6.8 4 Sudoeste 18 Noroeste 0.2 -- -- 100
2020-10-10 10:00:00 6.6 5 Noroeste 15 Noroeste 0.2 -- -- 100
2020-10-10 09:00:00 6.2 0 Calma 12 Oeste 0 -- -- 100
2020-10-10 08:00:00 6 4 Noroeste 13 Noroeste 0 -- -- 100
2020-10-10 07:00:00 5.9 5 Noroeste 13 Noroeste 0 -- -- 100
2020-10-10 06:00:00 5.6 4 Norte 18 Noroeste 0 -- -- 100
2020-10-10 05:00:00 6.3 8 Noroeste 14 Noroeste 0 -- -- 100
2020-10-10 04:00:00 6.9 4 Noroeste 9 Noroeste 0 -- -- 100
2020-10-10 03:00:00 7.1 5 Sudeste 10 Sur 0 -- -- 100
2020-10-10 02:00:00 7.3 3 Sur 7 Sudoeste 0 -- -- 100
2020-10-10 01:00:00 7.4 6 Sudeste 12 Sudeste 0 -- -- 100
2020-10-10 00:00:00 7.7 4 Este 9 Sudeste 0 -- -- 100
2020-10-09 23:00:00 8.5 0 Calma 10 Noroeste 0 -- -- 100
2020-10-09 22:00:00 8.8 4 Noroeste 12 Noroeste 0 -- -- 100
2020-10-09 21:00:00 9.7 7 Sur 12 Sur 0 -- -- 97
2020-10-09 20:00:00 9.9 2 Norte 6 Noroeste 0 -- -- 99
2020-10-09 19:00:00 10.5 0 Calma 9 Noroeste 0 -- -- 100
2020-10-09 18:00:00 11 5 Noroeste 12 Noroeste 0 -- -- 98
2020-10-09 17:00:00 12.6 8 Noroeste 14 Noroeste 0 -- -- 91
2020-10-09 16:00:00 14.2 6 Noroeste 12 Noroeste 0 -- -- 80
2020-10-09 15:00:00 13.8 7 Noroeste 13 Noroeste 0 -- -- 77
2020-10-09 14:00:00 13.7 5 Noroeste 13 Noroeste 0 -- -- 70
2020-10-09 13:00:00 14.2 6 Noroeste 9 Noroeste 0 -- -- 64
2020-10-09 12:00:00 14.5 3 Norte 16 Sudeste 0 -- -- 60
2020-10-09 11:00:00 14 8 Sudeste 17 Sur 0 -- -- 55
2020-10-09 10:00:00 12.5 7 Norte 26 Norte 0 -- -- 58
2020-10-09 09:00:00 12.7 10 Norte 17 Norte 0 -- -- 57
2020-10-09 08:00:00 9.9 8 Sur 14 Noroeste 0 -- -- 70
2020-10-09 07:00:00 12.5 7 Noroeste 23 Norte 0 -- -- 54
2020-10-09 06:00:00 12.9 10 Norte 19 Nordeste 0 -- -- 52
2020-10-09 05:00:00 12.9 6 Noroeste 23 Norte 0 -- -- 53
2020-10-09 04:00:00 13.1 11 Norte 21 Norte 0 -- -- 56
2020-10-09 03:00:00 12.2 5 Oeste 14 Noroeste 0 -- -- 61
2020-10-09 02:00:00 11.7 6 Sudeste 18 Noroeste 0 -- -- 62
2020-10-09 01:00:00 12.1 4 Sudeste 11 Sur 0 -- -- 55
2020-10-09 00:00:00 12.7 5 Este 13 Sudeste 0 -- -- 48
2020-10-08 23:00:00 12.5 5 Nordeste 13 Sur 0 -- -- 53
2020-10-08 22:00:00 12.2 2 Sudeste 34 Sur 0 -- -- 54
2020-10-08 21:00:00 14.4 9 Este 37 Sudeste 0 -- -- 42
2020-10-08 20:00:00 13.8 8 Sur 27 Sur 0 -- -- 42
2020-10-08 19:00:00 14.4 5 Norte 17 Norte 0 -- -- 66
2020-10-08 18:00:00 14.6 4 Noroeste 12 Noroeste 0 -- -- 69
2020-10-08 17:00:00 16.4 5 Noroeste 16 Noroeste 0 -- -- 53
2020-10-08 16:00:00 16.3 9 Norte 23 Nordeste 0 -- -- 55
2020-10-08 15:00:00 16.7 6 Noroeste 15 Norte 0 -- -- 61
2020-10-08 14:00:00 16.1 6 Norte 20 Este 0 -- -- 60
2020-10-08 13:00:00 15.8 4 Noroeste 19 Sudeste 0 -- -- 59
2020-10-08 12:00:00 14.5 3 Norte 17 Sudeste 0 -- -- 55
2020-10-08 11:00:00 14.2 4 Noroeste 15 Sur 0 -- -- 50
2020-10-08 10:00:00 13.9 9 Sudeste 17 Sudeste 0 -- -- 43
2020-10-08 09:00:00 12.2 6 Sudeste 16 Sudoeste 0 -- -- 45
2020-10-08 08:00:00 12.7 5 Oeste 16 Norte 0 -- -- 45
2020-10-08 07:00:00 11.5 9 Sudoeste 18 Sur 0 -- -- 45
2020-10-08 06:00:00 13 8 Sudoeste 17 Sur 0 -- -- 39
2020-10-08 05:00:00 11.5 4 Este 13 Sudoeste 0 -- -- 43
2020-10-08 04:00:00 10.8 5 Sudeste 12 Sudoeste 0 -- -- 54
2020-10-08 03:00:00 10 6 Sudoeste 14 Este 0 -- -- 59
2020-10-08 02:00:00 9.7 8 Este 16 Este 0 -- -- 61
2020-10-08 01:00:00 11 4 Sudeste 17 Sur 0 -- -- 75
2020-10-08 00:00:00 10.7 10 Sudeste 16 Sudeste 0 -- -- 56
2020-10-07 23:00:00 8.8 4 Este 10 Sudeste 0 -- -- 73
2020-10-07 22:00:00 9.7 6 Este 10 Este 0 -- -- 76
2020-10-07 21:00:00 9.7 5 Sudeste 15 Sudeste 0 -- -- 93
2020-10-07 20:00:00 10.5 4 Este 19 Este 0 -- -- 95
2020-10-07 19:00:00 11.9 3 Noroeste 8 Noroeste 0 -- -- 89
2020-10-07 18:00:00 12.8 5 Noroeste 8 Oeste 0 -- -- 81
2020-10-07 17:00:00 13.4 6 Noroeste 10 Oeste 0 -- -- 79
2020-10-07 16:00:00 13.4 7 Noroeste 10 Oeste 0 -- -- 79
2020-10-07 15:00:00 12.3 3 Noroeste 11 Noroeste 0 -- -- 82
2020-10-07 14:00:00 11 4 Oeste 18 Norte 0 -- -- 92
2020-10-07 13:00:00 10.1 12 Noroeste 23 Noroeste 0 -- -- 99
2020-10-07 12:00:00 10.4 11 Noroeste 22 Noroeste 0 -- -- 93
2020-10-07 11:00:00 10.1 12 Noroeste 24 Noroeste 0 -- -- 93
2020-10-07 10:00:00 10.2 4 Noroeste 15 Norte 0 -- -- 87
2020-10-07 09:00:00 9.3 3 Sudeste 9 Noroeste 0 -- -- 90
2020-10-07 08:00:00 8.5 3 Este 10 Sudeste 0 -- -- 91
2020-10-07 07:00:00 8.9 5 Este 13 Sur 0 -- -- 89
2020-10-07 06:00:00 9.7 8 Nordeste 19 Noroeste 0 -- -- 86
2020-10-07 05:00:00 9 3 Norte 17 Oeste 0 -- -- 82
2020-10-07 04:00:00 10.4 8 Noroeste 19 Noroeste 0 -- -- 71
2020-10-07 03:00:00 11.1 9 Noroeste 27 Noroeste 0 -- -- 64
2020-10-07 02:00:00 9.9 4 Norte 33 Oeste 0 -- -- 71
2020-10-07 01:00:00 11 10 Oeste 44 Noroeste 0 -- -- 64
2020-10-07 00:00:00 11.7 17 Norte 53 Norte 0 -- -- 70
2020-10-06 23:00:00 11.8 9 Oeste 32 Noroeste 0 -- -- 73
2020-10-06 22:00:00 12.1 12 Noroeste 43 Noroeste 0 -- -- 77
2020-10-06 21:00:00 12.3 13 Noroeste 53 Norte 0 -- -- 79
2020-10-06 20:00:00 12.4 20 Norte 47 Noroeste 0 -- -- 84
2020-10-06 19:00:00 12.5 12 Noroeste 36 Norte 0 -- -- 80
2020-10-06 18:00:00 12.8 13 Noroeste 36 Norte 0 -- -- 78
2020-10-06 17:00:00 13 13 Noroeste 28 Norte 0 -- -- 78
2020-10-06 16:00:00 13.2 13 Oeste 30 Oeste 0 -- -- 76
2020-10-06 15:00:00 12 11 Oeste 35 Sur 0 -- -- 85
2020-10-06 14:00:00 12.5 12 Sudoeste 35 Oeste 0 -- -- 81
2020-10-06 13:00:00 12.8 15 Sudoeste 34 Sudoeste 0 -- -- 78
2020-10-06 12:00:00 11.4 11 Sudoeste 30 Sur 0 -- -- 85
2020-10-06 11:00:00 11.4 15 Sudoeste 33 Sudoeste 0 -- -- 84
2020-10-06 10:00:00 10.1 13 Sudoeste 35 Sudoeste 0 -- -- 89
2020-10-06 09:00:00 11.1 13 Oeste 36 Oeste 0 -- -- 82
2020-10-06 08:00:00 9.6 23 Sudoeste 37 Sur 0 -- -- 92
2020-10-06 07:00:00 8.6 15 Sudoeste 37 Sudoeste 0 -- -- 97
2020-10-06 06:00:00 9.7 19 Sudoeste 38 Sudoeste 0 -- -- 90
2020-10-06 05:00:00 8.9 24 Sudoeste 37 Sudoeste 0 -- -- 94
2020-10-06 04:00:00 9.2 20 Sudoeste 36 Sudoeste 0 -- -- 91
2020-10-06 03:00:00 9.2 14 Sudoeste 38 Sur 0 -- -- 87
2020-10-06 02:00:00 8.9 21 Sudoeste 40 Sur 0 -- -- 88
2020-10-06 01:00:00 8.7 17 Sudoeste 38 Sur 0 -- -- 83
2020-10-06 00:00:00 8.8 13 Sudoeste 54 Oeste 0 -- -- 76
2020-10-05 23:00:00 8.7 13 Sur 32 Oeste 0 -- -- 68
2020-10-05 22:00:00 8.5 12 Noroeste 34 Sudoeste 0 -- -- 62
2020-10-05 21:00:00 8 19 Sudoeste 34 Sudoeste 0 -- -- 60
2020-10-05 20:00:00 7.5 22 Sudoeste 38 Sur 0 -- -- 63
2020-10-05 19:00:00 7.8 12 Noroeste 32 Noroeste 0 -- -- 64
2020-10-05 18:00:00 8.7 14 Norte 46 Noroeste 0 -- -- 62
2020-10-05 17:00:00 8.7 14 Norte 36 Noroeste 0 -- -- 65
2020-10-05 16:00:00 7.4 14 Norte 33 Norte 0 -- -- 69
2020-10-05 15:00:00 7.1 9 Norte 33 Sur 0 -- -- 71
2020-10-05 14:00:00 6.8 7 Sur 24 Sur 0 -- -- 69
2020-10-05 13:00:00 6 8 Sudoeste 22 Sur 0 -- -- 72
2020-10-05 12:00:00 5.3 7 Sudoeste 23 Sudoeste 0 -- -- 78
2020-10-05 11:00:00 4.4 8 Noroeste 18 Oeste 0 -- -- 82
2020-10-05 10:00:00 3.1 7 Noroeste 25 Norte 0 -- -- 88
2020-10-05 09:00:00 2.6 9 Noroeste 29 Norte 0 -- -- 92
2020-10-05 08:00:00 2.5 15 Norte 30 Norte 0 -- -- 91
2020-10-05 07:00:00 2.3 11 Noroeste 34 Sudoeste 0 -- -- 90
2020-10-05 06:00:00 2.2 10 Oeste 29 Oeste 0 -- -- 88
2020-10-05 05:00:00 2.7 11 Oeste 26 Oeste 0 -- -- 83
2020-10-05 04:00:00 2.4 9 Oeste 28 Noroeste 0 -- -- 86
2020-10-05 03:00:00 3 12 Noroeste 28 Noroeste 0 -- -- 88
2020-10-05 02:00:00 3.2 10 Noroeste 39 Sudoeste 0 -- -- 88
2020-10-05 01:00:00 3.4 9 Noroeste 34 Norte 0 -- -- 85
2020-10-05 00:00:00 3.7 12 Noroeste 52 Noroeste 0 -- -- 87
2020-10-04 23:00:00 3.8 15 Norte 32 Noroeste 0 -- -- 88
2020-10-04 22:00:00 3.3 10 Noroeste 35 Noroeste 0.6 -- -- 91
2020-10-04 21:00:00 4.1 18 Norte 37 Noroeste 0.2 -- -- 85
2020-10-04 20:00:00 3.9 10 Noroeste 41 Noroeste 0.4 -- -- 89
2020-10-04 19:00:00 5.1 18 Norte 48 Noroeste 0 -- -- 80
2020-10-04 18:00:00 5 19 Noroeste 48 Norte 0 -- -- 83
2020-10-04 17:00:00 4.2 15 Noroeste 50 Norte 0.4 -- -- 88
2020-10-04 16:00:00 2.7 16 Noroeste 45 Norte 1 -- -- 96
2020-10-04 15:00:00 5.5 14 Norte 43 Noroeste 0 -- -- 76
2020-10-04 14:00:00 5.8 26 Noroeste 44 Noroeste 0 -- -- 72
2020-10-04 13:00:00 5.2 18 Noroeste 48 Noroeste 0 -- -- 77
2020-10-04 12:00:00 4.4 17 Noroeste 46 Noroeste 0 -- -- 83
2020-10-04 11:00:00 4 19 Noroeste 53 Noroeste 0 -- -- 88
2020-10-04 10:00:00 4 28 Norte 68 Norte 0.2 -- -- 92
2020-10-04 09:00:00 3.8 34 Norte 68 Norte 0.2 -- -- 92
2020-10-04 08:00:00 2.9 28 Nordeste 82 Norte 0 -- -- 92
2020-10-04 07:00:00 2.8 20 Norte 60 Noroeste 0 -- -- 92
2020-10-04 06:00:00 3 12 Sudeste 38 Sudoeste 0 -- -- 89
2020-10-04 05:00:00 3.2 14 Noroeste 51 Norte 0 -- -- 83
2020-10-04 04:00:00 3 16 Noroeste 58 Noroeste 0 -- -- 89
2020-10-04 03:00:00 3.4 23 Norte 69 Norte 0 -- -- 88
2020-10-04 02:00:00 3.5 29 Norte 68 Norte 0 -- -- 86
2020-10-04 01:00:00 3.5 22 Norte 55 Oeste 0 -- -- 84
2020-10-04 00:00:00 3.3 11 Noroeste 36 Noroeste 0 -- -- 83
2020-10-03 23:00:00 3.4 15 Noroeste 43 Norte 0 -- -- 79
2020-10-03 22:00:00 4 17 Noroeste 62 Noroeste 0 -- -- 75
2020-10-03 21:00:00 4.5 21 Noroeste 53 Norte 0 -- -- 71
2020-10-03 20:00:00 5 24 Noroeste 62 Norte 0 -- -- 66
2020-10-03 19:00:00 5.3 32 Norte 77 Noroeste 0 -- -- 67
2020-10-03 18:00:00 5.6 28 Norte 62 Norte 0 -- -- 68
2020-10-03 17:00:00 5 26 Norte 58 Noroeste 0 -- -- 74
2020-10-03 16:00:00 4.6 13 Oeste 51 Noroeste 0 -- -- 79
2020-10-03 15:00:00 4.2 15 Noroeste 46 Norte 0 -- -- 81
2020-10-03 14:00:00 3.6 18 Noroeste 59 Nordeste 0 -- -- 81
2020-10-03 13:00:00 3.7 15 Noroeste 45 Noroeste 0 -- -- 77
2020-10-03 12:00:00 2.7 19 Noroeste 49 Noroeste 0 -- -- 81
2020-10-03 11:00:00 1.7 19 Oeste 45 Noroeste 0 -- -- 86
2020-10-03 10:00:00 0.9 16 Oeste 41 Noroeste 0 -- -- 89
2020-10-03 09:00:00 0.5 18 Oeste 45 Oeste 0 -- -- 90
2020-10-03 08:00:00 0.5 15 Oeste 44 Oeste 0 -- -- 88
2020-10-03 07:00:00 0.4 18 Oeste 42 Norte 0 -- -- 88
2020-10-03 06:00:00 0.4 18 Oeste 44 Noroeste 0 -- -- 87
2020-10-03 05:00:00 0.3 16 Noroeste 44 Noroeste 0 -- -- 88
2020-10-03 04:00:00 0.5 17 Noroeste 38 Noroeste 0 -- -- 86
2020-10-03 03:00:00 0.7 12 Noroeste 34 Noroeste 0 -- -- 90
2020-10-03 02:00:00 1 16 Noroeste 42 Noroeste 0 -- -- 91
2020-10-03 01:00:00 0.9 18 Noroeste 52 Noroeste 0 -- -- 91
2020-10-03 00:00:00 1 15 Noroeste 55 Norte 0 -- -- 86
2020-10-02 23:00:00 1.3 15 Noroeste 46 Oeste 0 -- -- 82
2020-10-02 22:00:00 1.4 11 Noroeste 40 Noroeste 0 -- -- 83
2020-10-02 21:00:00 1.4 17 Noroeste 48 Noroeste 0 -- -- 78
2020-10-02 20:00:00 1.4 16 Noroeste 39 Noroeste 0 -- -- 78
2020-10-02 19:00:00 2.3 14 Noroeste 32 Oeste 0.2 -- -- 80
2020-10-02 18:00:00 1.3 10 Noroeste 44 Noroeste 0 -- -- 99
2020-10-02 17:00:00 2.2 15 Noroeste 40 Norte 0 -- -- 99
2020-10-02 16:00:00 0.9 14 Noroeste 36 Noroeste 0.2 -- -- 100
2020-10-02 15:00:00 0.2 14 Noroeste 30 Noroeste 1.6 -- -- 100
2020-10-02 14:00:00 0.2 10 Noroeste 21 Norte 0.4 -- -- 100
2020-10-02 13:00:00 0 9 Noroeste 28 Oeste 1.4 -- -- 100
2020-10-02 12:00:00 1 14 Noroeste 26 Noroeste 0.8 -- -- 100
2020-10-02 11:00:00 -0.3 4 Noroeste 30 Noroeste 4 -- -- 100
2020-10-02 10:00:00 2.3 14 Noroeste 64 Noroeste 1.6 -- -- 100
2020-10-02 09:00:00 5.4 32 Noroeste 80 Noroeste 0.6 -- -- 92
2020-10-02 08:00:00 6.7 36 Noroeste 93 Norte 2.6 -- -- 86
2020-10-02 07:00:00 7.1 33 Noroeste 125 Noroeste 3.8 -- -- 97
2020-10-02 06:00:00 7.5 58 Norte 127 Noroeste 2.2 -- -- 98
2020-10-02 05:00:00 6.9 35 Norte 105 Sur 1 -- -- 100
2020-10-02 04:00:00 6.3 34 Norte 120 Noroeste 0.4 -- -- 100
2020-10-02 03:00:00 6.7 24 Este 86 Sudeste 0.6 -- -- 96
2020-10-02 02:00:00 6.8 26 Nordeste 90 Sudeste 1.6 -- -- 93
2020-10-02 01:00:00 7.5 36 Sudeste 88 Sur 0.2 -- -- 87
2020-10-02 00:00:00 8.1 38 Sudeste 121 Sur 0.2 -- -- 79
2020-10-01 23:00:00 8.2 49 Sudeste 97 Sudeste 0 -- -- 74
2020-10-01 22:00:00 8.5 35 Sudeste 84 Sudeste 0 -- -- 69
2020-10-01 21:00:00 9 35 Sudeste 78 Sur 0 -- -- 68
2020-10-01 20:00:00 9 33 Sudeste 69 Sudeste 0 -- -- 69
2020-10-01 19:00:00 9.3 22 Sudeste 42 Este 0 -- -- 70
2020-10-01 18:00:00 9.5 20 Sudeste 54 Sur 0 -- -- 68
2020-10-01 17:00:00 9.5 16 Sur 44 Sudeste 0 -- -- 70
2020-10-01 16:00:00 9.7 11 Norte 44 Sudeste 0 -- -- 69
2020-10-01 15:00:00 9 9 Norte 50 Nordeste 0 -- -- 76
2020-10-01 14:00:00 8.9 10 Nordeste 30 Norte 0 -- -- 75
2020-10-01 13:00:00 8.8 12 Norte 29 Noroeste 0 -- -- 79
2020-10-01 12:00:00 9.2 9 Noroeste 19 Noroeste 0 -- -- 78
2020-10-01 11:00:00 8.3 6 Noroeste 29 Norte 0 -- -- 85
2020-10-01 10:00:00 8.9 12 Noroeste 27 Noroeste 0 -- -- 75
2020-10-01 09:00:00 8.1 12 Noroeste 39 Norte 0 -- -- 87
2020-10-01 08:00:00 8.6 5 Oeste 34 Noroeste 0 -- -- 82
2020-10-01 07:00:00 8.8 15 Norte 32 Norte 0 -- -- 81
2020-10-01 06:00:00 9.5 10 Norte 45 Sur 0 -- -- 62
2020-10-01 05:00:00 11.1 19 Norte 49 Este 0 -- -- 49
2020-10-01 04:00:00 11.7 17 Sudeste 40 Norte 0 -- -- 46
2020-10-01 03:00:00 11.7 17 Norte 35 Nordeste 0 -- -- 49
2020-10-01 02:00:00 12.4 18 Norte 61 Noroeste 0 -- -- 59
2020-10-01 01:00:00 12.5 21 Noroeste 56 Norte 0 -- -- 60
2020-10-01 00:00:00 13.2 22 Norte 47 Noroeste 0 -- -- 55
2020-09-30 23:00:00 14 13 Noroeste 50 Noroeste 0 -- -- 46
2020-09-30 22:00:00 13.8 14 Norte 45 Noroeste 0 -- -- 47
2020-09-30 21:00:00 13.7 16 Norte 38 Norte 0 -- -- 44
2020-09-30 20:00:00 14 9 Norte 32 Norte 0 -- -- 45
2020-09-30 19:00:00 15 8 Sudeste 37 Sudeste 0 -- -- 42
2020-09-30 18:00:00 16.6 12 Nordeste 32 Nordeste 0 -- -- 39
2020-09-30 17:00:00 16.8 7 Nordeste 26 Noroeste 0 -- -- 36
2020-09-30 16:00:00 16.7 6 Norte 27 Sur 0 -- -- 36
2020-09-30 15:00:00 16.3 12 Sudeste 29 Sudeste 0 -- -- 35
2020-09-30 14:00:00 16.6 4 Nordeste 32 Noroeste 0 -- -- 39
2020-09-30 13:00:00 15 9 Norte 30 Norte 0 -- -- 43
2020-09-30 12:00:00 14.2 7 Noroeste 16 Noroeste 0 -- -- 50
2020-09-30 11:00:00 12.8 8 Sudeste 12 Sudeste 0 -- -- 54
2020-09-30 10:00:00 10.2 8 Este 15 Sudeste 0 -- -- 57
2020-09-30 09:00:00 9.2 10 Sur 15 Sur 0 -- -- 69
2020-09-30 08:00:00 9.3 11 Sudeste 16 Sudeste 0 -- -- 68
2020-09-30 07:00:00 9.8 6 Sudeste 14 Sur 0 -- -- 53
2020-09-30 06:00:00 9.3 11 Sudeste 16 Sudeste 0 -- -- 46
2020-09-30 05:00:00 9.4 10 Sudeste 16 Sudeste 0 -- -- 41
2020-09-30 04:00:00 10 10 Sudeste 15 Sudeste 0 -- -- 40
2020-09-30 03:00:00 10 10 Sudeste 16 Sur 0 -- -- 40
2020-09-30 02:00:00 9.3 12 Sur 16 Sur 0 -- -- 49
2020-09-30 01:00:00 9.8 6 Este 13 Este 0 -- -- 51
2020-09-30 00:00:00 10 5 Sudoeste 13 Sur 0 -- -- 52